Flight Track Log - Related Links

Times and Time Zones

All times are in EDT time to prevent confusion due to time zone crossing. See the UAL4788 flight status page for this flight to view local times or setup timezone preferences in your user account.

Time Position Orientation Groundspeed Altitude Reporting Facility
EDT Latitude Longitude Course Direction KTS MPH feet Rate Location/Type
Wed 10:47:20 AM 41.4178 -81.8350 127° Southeast 140 161 1,600  Level Cleveland Center
Wed 10:48:43 AM 41.3953 -81.7650 113° Southeast 191 220 3,100 1,175 Climbing Cleveland Center
Wed 10:48:57 AM 41.3875 -81.7519 128° Southeast 190 219 3,500 1,548 Climbing Cleveland Center
Wed 10:49:45 AM 41.3644 -81.7081 125° Southeast 189 217 4,700 1,418 Climbing Cleveland Center
Wed 10:50:47 AM 41.3331 -81.6447 123° Southeast 193 222 6,100 1,258 Climbing Cleveland Center
Wed 10:51:49 AM 41.2986 -81.5753 123° Southeast 212 244 7,300 1,355 Climbing Cleveland Center
Wed 10:52:00 AM 41.1601 -81.3302 127° Southeast  Level FlightAware Approximate
Wed 10:52:51 AM 41.2636 -81.5072 124° Southeast 217 250 8,900  Level Cleveland Center
Wed 10:53:53 AM 41.2325 -81.4456 124° Southeast 217 250 10,400 1,403 Climbing Cleveland Center
Wed 10:54:55 AM 41.1919 -81.3683 125° Southeast 226 260 11,800 1,306 Climbing Cleveland Center
Wed 10:55:57 AM 41.1508 -81.2931 126° Southeast 246 283 13,100 1,296 Climbing Cleveland Center
Wed 10:57:00 AM 41.1094 -81.2167 126° Southeast 250 288 14,500 1,344 Climbing Cleveland Center
Wed 10:58:02 AM 41.0667 -81.1414 127° Southeast 252 290 15,900 1,403 Climbing Cleveland Center
Wed 10:59:04 AM 41.0181 -81.0539 126° Southeast 251 289 17,400 1,016 Climbing Cleveland Center
Wed 11:00:06 AM 40.9831 -80.9878 125° Southeast 251 289 18,000 919 Climbing Cleveland Center
Wed 11:01:08 AM 40.9333 -80.8964 126° Southeast 253 291 19,300 1,065 Climbing Cleveland Center
Wed 11:02:10 AM 40.8908 -80.8192 126° Southeast 258 297 20,200 823 Climbing Cleveland Center
Wed 11:03:12 AM 40.8464 -80.7411 127° Southeast 262 302 21,000 387 Climbing Cleveland Center
Wed 11:04:14 AM 40.8003 -80.6586 126° Southeast 283 326 21,000  Level Cleveland Center
Wed 11:05:16 AM 40.7489 -80.5664 126° Southeast 305 351 21,000  Level Cleveland Center
Wed 11:06:18 AM 40.6883 -80.4567 126° Southeast 312 359 21,000  Level Cleveland Center
Wed 11:07:20 AM 40.6350 -80.3625 127° Southeast 318 366 21,000  Level Cleveland Center
Wed 11:08:22 AM 40.5789 -80.2650 127° Southeast 315 362 21,000  Level Cleveland Center
Wed 11:09:24 AM 40.5242 -80.1789 130° Southeast 310 357 21,000  Level Cleveland Center
Wed 11:10:26 AM 40.4658 -80.0942 132° Southeast 310 357 21,000  Level Cleveland Center
Wed 11:11:28 AM 40.4114 -80.0089 130° Southeast 310 357 21,000  Level Cleveland Center
Wed 11:12:30 AM 40.3469 -79.9311 137° Southeast 304 350 21,000  Level Cleveland Center
Wed 11:13:32 AM 40.2858 -79.8539 136° Southeast 304 350 21,000  Level Cleveland Center
Wed 11:14:33 AM 40.2250 -79.7772 136° Southeast 304 350 21,000  Level Cleveland Center
Wed 11:15:35 AM 40.1639 -79.7006 136° Southeast 304 350 21,000  Level Cleveland Center
Wed 11:16:37 AM 40.0903 -79.6094 137° Southeast 304 350 21,000  Level Cleveland Center
Wed 11:17:39 AM 40.0300 -79.5342 136° Southeast 302 348 21,000  Level Cleveland Center
Wed 11:18:41 AM 39.9686 -79.4589 137° Southeast 303 349 21,000  Level Cleveland Center
Wed 11:19:43 AM 39.9072 -79.3833 137° Southeast 304 350 21,000  Level Cleveland Center
Wed 11:20:44 AM 39.8467 -79.3078 136° Southeast 304 350 21,000 -390 Level Cleveland Center
Wed 11:21:46 AM 39.7839 -79.2311 137° Southeast 309 356 20,200 -1,210 Descending Cleveland Center
Wed 11:22:48 AM 39.7197 -79.1556 138° Southeast 311 358 18,500 -1,548 Descending Cleveland Center
Wed 11:23:50 AM 39.6444 -79.0639 137° Southeast 312 359 17,000 -968 Descending Cleveland Center
Wed 11:24:52 AM 39.6153 -78.9606 110° East 293 337 16,500 -726 Descending Cleveland Center
Wed 11:25:54 AM 39.5947 -78.8528 104° East 304 350 15,500 -1,016 Descending Cleveland Center
Wed 11:26:56 AM 39.5719 -78.7381 104° East 321 369 14,400 -1,039 Descending Cleveland Center
Wed 11:28:01 AM 39.5464 -78.6244 106° East 318 366 13,300 -1,048 Descending Washington Center
Wed 11:29:02 AM 39.5242 -78.5133 105° East 318 366 12,200 -1,160 Descending Washington Center
Wed 11:30:00 AM 39.4803 -78.4281 124° Southeast 318 366 11,000 -1,067 Descending Washington Center
Wed 11:32:02 AM 39.3433 -78.3156 142° Southeast 283 326 9,000 -984 Descending Washington Center
Wed 11:33:03 AM 39.2756 -78.2672 151° Southeast 288 331 8,000 -915 Descending Washington Center
Wed 11:34:00 AM 39.2036 -78.2192 153° Southeast 288 331 7,200 -763 Descending Washington Center
Wed 11:35:01 AM 39.1339 -78.1739 153° Southeast 288 331 6,500 -590 Descending Washington Center
Wed 11:36:02 AM 39.0939 -78.0922 122° Southeast 260 299 6,000 -161 Descending Washington Center
Wed 11:38:07 AM 39.0333 -77.9167 114° Southeast 255 293 6,000  Level Potomac TRACON
Wed 11:39:00 AM 39.2101 -77.7034 150° Southeast  Level FlightAware Approximate
Wed 11:39:07 AM 39.0000 -77.8333 117° Southeast 253 291 6,000  Level Potomac TRACON
Wed 11:40:00 AM 39.1486 -77.6486 142° Southeast  Level FlightAware Approximate
Wed 11:40:02 AM 38.9667 -77.7500 117° Southeast 255 293 6,000  Level Potomac TRACON
Wed 11:41:02 AM 38.9500 -77.6667 104° East 248 285 6,000  Level Potomac TRACON
Wed 11:41:56 AM 38.9167 -77.6000 123° Southeast 268 308 6,000 -368 Level Potomac TRACON
Wed 11:42:56 AM 38.8500 -77.5667 159° South 268 308 5,300 -1,350 Descending Potomac TRACON
Wed 11:43:56 AM 38.8333 -77.5167 113° Southeast 205 236 3,300 -1,650 Descending Potomac TRACON
Wed 11:44:56 AM 38.8500 -77.4667 67° East 168 193 2,000 -1,100 Descending Potomac TRACON
Wed 11:45:56 AM 38.9000 -77.4667 360° North 149 171 1,100 -900 Descending Potomac TRACON

Login

Don't have an account? Register now (free) for customized features, flight alerts, and more!